Time;durP1;ratioP1;P1;durP2;ratioP2;P2;SDS_P1;SDS_P2;PMS_P1;PMS_P2;Temp;Humidity;BMP_temperature;BMP_pressure;BME280_temperature;BME280_humidity;BME280_pressure;Samples;Min_cycle;Max_cycle;Signal;HPM_P1;HPM_P2
2023/09/16 00:00:19;;;;;;;8.85;5.60;;;;;;;;;;5033808;28;20053;-29
2023/09/16 00:02:48;;;;;;;7.85;5.47;;;;;;;;;;5033739;28;20132;-29
2023/09/16 00:05:15;;;;;;;7.60;5.30;;;;;;;;;;5050087;28;20137;-29
2023/09/16 00:07:43;;;;;;;7.22;5.35;;;18.40;86.10;;;;;;5034648;28;20081;-29
2023/09/16 00:10:10;;;;;;;9.70;5.60;;;19.60;86.50;;;;;;5033734;28;20136;-29
2023/09/16 00:12:37;;;;;;;8.45;5.95;;;19.50;73.00;;;;;;5033493;28;20128;-29
2023/09/16 00:15:04;;;;;;;8.25;5.32;;;19.40;68.50;;;;;;5033467;28;20128;-30
2023/09/16 00:17:31;;;;;;;8.95;5.70;;;;;;;;;;5033776;28;20049;-29
2023/09/16 00:19:58;;;;;;;7.38;5.35;;;19.50;83.30;;;;;;5033601;28;20129;-29
2023/09/16 00:22:26;;;;;;;8.40;5.60;;;;;;;;;;5033081;28;20125;-29
2023/09/16 00:24:54;;;;;;;7.57;5.20;;;19.50;68.90;;;;;;5033518;28;20053;-29
2023/09/16 00:27:20;;;;;;;8.32;5.53;;;19.10;86.30;;;;;;5033175;28;20561;-29
2023/09/16 00:29:47;;;;;;;8.02;4.85;;;19.80;87.10;;;;;;5033391;28;20136;-29
2023/09/16 00:32:14;;;;;;;7.38;5.43;;;;;;;;;;5033118;28;20485;-31
2023/09/16 00:34:41;;;;;;;8.20;5.63;;;19.50;86.80;;;;;;5033385;28;20471;-29
2023/09/16 00:37:07;;;;;;;7.93;4.93;;;18.90;86.60;;;;;;5033027;28;20125;-29
2023/09/16 00:39:36;;;;;;;6.75;4.90;;;;;;;;;;5032614;28;20566;-30
2023/09/16 00:42:04;;;;;;;8.63;5.00;;;19.30;68.60;;;;;;5032577;28;20049;-31
2023/09/16 00:44:31;;;;;;;6.10;4.88;;;;;;;;;;5032941;28;20151;-29
2023/09/16 00:46:58;;;;;;;6.72;4.63;;;;;;;;;;5032913;28;20172;-29
2023/09/16 00:49:28;;;;;;;6.88;5.13;;;19.30;86.80;;;;;;5033053;28;20133;-29
2023/09/16 00:51:54;;;;;;;7.60;4.70;;;;;;;;;;5032632;28;20498;-29
2023/09/16 00:54:21;;;;;;;7.90;5.38;;;19.80;84.70;;;;;;5032838;28;20050;-29
2023/09/16 00:56:48;;;;;;;6.10;4.68;;;19.50;86.90;;;;;;5032781;28;20481;-29
2023/09/16 00:59:16;;;;;;;7.75;5.28;;;19.40;86.80;;;;;;5032819;28;20120;-29
2023/09/16 01:01:44;;;;;;;6.82;4.78;;;18.90;86.40;;;;;;5032692;28;20073;-29
2023/09/16 01:04:11;;;;;;;7.35;5.10;;;;;;;;;;5040550;28;20060;-30
2023/09/16 01:06:38;;;;;;;5.78;4.50;;;19.00;86.10;;;;;;5052533;28;20137;-29
2023/09/16 01:09:05;;;;;;;5.40;4.13;;;19.70;70.60;;;;;;5050198;28;20132;-30
2023/09/16 01:11:32;;;;;;;7.28;5.05;;;19.20;86.40;;;;;;5032178;28;20128;-29
2023/09/16 01:13:59;;;;;;;5.78;4.63;;;19.00;86.60;;;;;;5032112;28;20124;-29
2023/09/16 01:16:33;;;;;;;6.93;5.22;;;19.40;69.70;;;;;;5032755;28;20128;-29
2023/09/16 01:19:05;;;;;;;5.53;4.10;;;19.20;86.30;;;;;;5032268;28;20132;-29
2023/09/16 01:21:32;;;;;;;6.70;4.63;;;19.20;75.70;;;;;;5032508;28;20049;-29
2023/09/16 01:24:16;;;;;;;8.77;4.43;;;18.50;86.20;;;;;;5032033;28;20132;-29
2023/09/16 01:26:44;;;;;;;6.20;4.53;;;18.90;86.50;;;;;;5032039;28;20049;-32
2023/09/16 01:29:11;;;;;;;7.72;4.95;;;;;;;;;;5032235;28;20045;-32
2023/09/16 01:31:38;;;;;;;6.63;5.03;;;19.30;76.30;;;;;;5031565;28;20132;-32
2023/09/16 01:34:08;;;;;;;5.57;4.18;;;18.10;75.70;;;;;;5029144;28;20180;-32
2023/09/16 01:36:35;;;;;;;6.88;4.30;;;;;;;;;;5028269;28;20085;-32
2023/09/16 01:39:03;;;;;;;6.63;4.72;;;19.20;74.40;;;;;;5032128;28;20139;-32
2023/09/16 01:41:31;;;;;;;5.57;4.50;;;;;;;;;;5031825;28;20054;-32
2023/09/16 01:43:59;;;;;;;5.78;4.43;;;19.50;86.30;;;;;;5031884;28;20136;-32
2023/09/16 01:46:25;;;;;;;5.70;4.32;;;19.60;86.50;;;;;;5032076;28;20129;-32
2023/09/16 01:48:52;;;;;;;6.10;4.50;;;18.50;86.60;;;;;;5032007;28;20128;-33
2023/09/16 01:51:19;;;;;;;6.60;4.32;;;19.50;72.10;;;;;;5031685;28;20128;-32
2023/09/16 01:53:46;;;;;;;5.93;4.47;;;19.30;86.80;;;;;;5030958;28;20137;-32
2023/09/16 01:56:13;;;;;;;5.72;4.25;;;;;;;;;;5031959;28;20124;-31
2023/09/16 01:58:39;;;;;;;6.15;4.47;;;19.20;86.40;;;;;;5030262;28;20128;-32
2023/09/16 02:01:10;;;;;;;8.05;4.43;;;19.00;86.50;;;;;;5031877;28;20200;-32
2023/09/16 02:03:37;;;;;;;6.70;4.50;;;18.80;73.40;;;;;;5034298;28;20067;-32
2023/09/16 02:06:04;;;;;;;5.80;4.18;;;;;;;;;;5043079;28;20133;-32
2023/09/16 02:08:31;;;;;;;6.05;4.22;;;;;;;;;;5032053;28;20493;-31
2023/09/16 02:10:58;;;;;;;5.75;4.38;;;17.90;80.20;;;;;;5032152;28;20128;-32
2023/09/16 02:13:25;;;;;;;5.18;4.18;;;20.00;86.80;;;;;;5031574;28;20136;-32
2023/09/16 02:15:51;;;;;;;4.90;4.03;;;20.10;73.70;;;;;;5031237;28;20483;-32
2023/09/16 02:18:19;;;;;;;6.25;4.22;;;19.20;68.50;;;;;;5031495;28;20136;-31
2023/09/16 02:20:46;;;;;;;5.55;4.30;;;19.10;86.60;;;;;;5031922;28;20467;-32
2023/09/16 02:23:13;;;;;;;6.38;4.75;;;19.00;86.20;;;;;;5031606;28;20137;-32
2023/09/16 02:25:40;;;;;;;6.70;4.72;;;19.20;86.70;;;;;;5031668;28;20133;-32
2023/09/16 02:28:07;;;;;;;5.75;4.05;;;;;;;;;;5031482;28;20124;-33
2023/09/16 02:30:34;;;;;;;5.80;4.30;;;19.30;74.80;;;;;;5031362;28;20129;-32
2023/09/16 02:33:00;;;;;;;5.78;4.45;;;19.70;86.90;;;;;;5031138;28;20136;-32
2023/09/16 02:35:29;;;;;;;6.38;4.30;;;18.90;86.20;;;;;;5031670;28;20124;-32
2023/09/16 02:37:57;;;;;;;6.22;4.47;;;;;;;;;;5030938;28;20128;-31
2023/09/16 02:40:24;;;;;;;5.57;4.32;;;19.20;76.30;;;;;;5031526;28;20049;-32
2023/09/16 02:42:50;;;;;;;5.05;3.83;;;18.60;74.90;;;;;;5031364;28;20052;-32
2023/09/16 02:45:17;;;;;;;4.57;3.90;;;18.80;86.10;;;;;;5031396;28;20136;-32
2023/09/16 02:47:44;;;;;;;5.35;4.18;;;20.20;86.90;;;;;;5030740;28;20129;-32
2023/09/16 02:50:11;;;;;;;4.75;3.85;;;19.40;76.00;;;;;;5031378;28;20133;-32
2023/09/16 02:52:39;;;;;;;4.82;3.80;;;19.00;86.60;;;;;;5031465;28;20097;-32
2023/09/16 02:55:06;;;;;;;5.15;4.28;;;19.00;76.80;;;;;;5031504;28;20132;-32
2023/09/16 02:57:33;;;;;;;5.80;4.30;;;18.20;85.70;;;;;;5031267;28;20128;-32
2023/09/16 03:00:00;;;;;;;4.57;3.90;;;19.00;86.20;;;;;;5031299;28;20447;-32
2023/09/16 03:02:27;;;;;;;5.85;4.53;;;;;;;;;;5030891;28;20061;-30
2023/09/16 03:04:56;;;;;;;5.00;3.80;;;19.80;86.70;;;;;;5030690;28;20136;-32
2023/09/16 03:07:22;;;;;;;4.95;3.92;;;20.10;87.10;;;;;;5034933;28;20088;-33
2023/09/16 03:09:50;;;;;;;5.78;4.18;;;19.10;68.50;;;;;;5034880;28;20138;-32
2023/09/16 03:12:17;;;;;;;5.65;4.00;;;18.60;78.80;;;;;;5034633;28;20124;-32
2023/09/16 03:14:44;;;;;;;4.55;3.60;;;;;;;;;;5034756;28;20137;-32
2023/09/16 03:17:11;;;;;;;5.88;4.00;;;;;;;;;;5034666;28;20561;-31
2023/09/16 03:19:38;;;;;;;5.20;3.95;;;19.00;71.40;;;;;;5034465;28;20569;-32
2023/09/16 03:22:05;;;;;;;4.72;3.78;;;19.10;86.30;;;;;;5034581;28;20136;-32
2023/09/16 03:24:32;;;;;;;4.70;3.90;;;;;;;;;;5034676;28;20053;-32
2023/09/16 03:27:00;;;;;;;5.00;3.90;;;19.90;86.60;;;;;;5034082;28;20137;-32
2023/09/16 03:29:26;;;;;;;4.20;3.60;;;18.80;86.50;;;;;;5034490;28;20136;-32
2023/09/16 03:31:53;;;;;;;4.82;3.80;;;;;;;;;;5034496;28;20128;-31
2023/09/16 03:34:20;;;;;;;6.22;3.92;;;19.20;86.30;;;;;;5034613;28;20180;-32
2023/09/16 03:36:47;;;;;;;5.00;3.80;;;19.70;87.00;;;;;;5030768;28;20479;-32
2023/09/16 03:39:15;;;;;;;5.47;4.03;;;;;;;;;;5034387;28;20124;-32
2023/09/16 03:41:42;;;;;;;6.45;4.00;;;;;;;;;;5034296;28;20483;-31
2023/09/16 03:44:12;;;;;;;5.38;4.20;;;18.90;86.60;;;;;;5034031;28;20479;-32
2023/09/16 03:46:39;;;;;;;4.72;3.88;;;;;;;;;;5034259;28;20053;-32
2023/09/16 03:49:06;;;;;;;5.65;4.20;;;19.30;71.50;;;;;;5034251;28;20048;-32
2023/09/16 03:51:33;;;;;;;5.38;4.40;;;18.90;86.10;;;;;;5033891;28;20050;-32
2023/09/16 03:54:00;;;;;;;5.78;3.67;;;;;;;;;;5033960;28;20128;-32
2023/09/16 03:56:27;;;;;;;5.40;3.83;;;18.80;86.50;;;;;;5034203;28;20140;-32
2023/09/16 03:58:55;;;;;;;5.00;3.80;;;19.60;86.70;;;;;;5034007;28;20128;-33
2023/09/16 04:01:23;;;;;;;4.70;4.20;;;20.30;87.00;;;;;;5034003;28;20048;-32
2023/09/16 04:03:50;;;;;;;3.97;3.58;;;;;;;;;;5033776;28;20128;-32
2023/09/16 04:06:17;;;;;;;4.75;3.75;;;;;;;;;;5033413;28;20049;-32
2023/09/16 04:08:44;;;;;;;5.13;4.05;;;19.30;76.50;;;;;;5033761;28;20136;-32
2023/09/16 04:11:11;;;;;;;4.60;3.75;;;;;;;;;;5034057;28;20057;-31
2023/09/16 04:13:38;;;;;;;4.80;3.90;;;17.80;85.70;;;;;;5033647;28;20049;-32
2023/09/16 04:16:04;;;;;;;4.65;3.92;;;19.40;86.90;;;;;;5033127;28;20054;-32
2023/09/16 04:18:34;;;;;;;4.80;3.70;;;19.10;68.40;;;;;;5033392;28;20045;-32
2023/09/16 04:21:02;;;;;;;5.40;3.88;;;18.80;86.60;;;;;;5033373;28;20053;-32
2023/09/16 04:23:29;;;;;;;5.13;4.18;;;;;;;;;;5033286;28;20045;-32
2023/09/16 04:25:57;;;;;;;6.65;4.43;;;;;;;;;;5032993;28;20537;-29
2023/09/16 04:28:23;;;;;;;4.90;4.03;;;19.20;76.10;;;;;;5033528;28;20144;-29
2023/09/16 04:30:51;;;;;;;4.47;3.80;;;19.10;68.40;;;;;;5033427;28;20132;-30
2023/09/16 04:33:18;;;;;;;4.20;3.70;;;;;;;;;;5033218;28;20148;-29
2023/09/16 04:35:46;;;;;;;4.80;4.03;;;18.20;86.30;;;;;;5033326;28;20593;-29
2023/09/16 04:38:13;;;;;;;4.88;3.70;;;;;;;;;;5032455;28;20049;-29
2023/09/16 04:40:42;;;;;;;4.75;3.80;;;19.20;83.60;;;;;;5027487;28;20133;-29
2023/09/16 04:43:08;;;;;;;4.22;3.63;;;19.30;86.80;;;;;;5030108;28;20133;-29
2023/09/16 04:45:36;;;;;;;4.57;4.00;;;19.00;83.00;;;;;;5032819;28;20136;-29
2023/09/16 04:48:04;;;;;;;4.72;3.80;;;20.10;86.80;;;;;;5015921;28;20045;-29
2023/09/16 04:50:31;;;;;;;4.70;4.13;;;19.30;86.70;;;;;;5013202;28;20049;-29
2023/09/16 04:52:59;;;;;;;4.65;3.97;;;18.70;72.90;;;;;;5015718;28;20469;-29
2023/09/16 04:55:26;;;;;;;6.55;4.28;;;18.80;70.30;;;;;;5033156;28;20132;-29
2023/09/16 04:57:53;;;;;;;5.70;4.50;;;19.20;86.30;;;;;;5033055;28;20103;-29
2023/09/16 05:00:20;;;;;;;5.65;4.28;;;18.30;85.60;;;;;;5032940;28;20478;-29
2023/09/16 05:02:50;;;;;;;4.75;4.22;;;19.30;86.60;;;;;;5032826;28;20063;-29
2023/09/16 05:05:17;;;;;;;4.85;4.30;;;20.00;83.10;;;;;;5049555;28;20075;-29
2023/09/16 05:07:43;;;;;;;5.18;4.60;;;19.60;86.50;;;;;;5043350;28;20132;-29
2023/09/16 05:10:14;;;;;;;4.20;3.80;;;19.00;68.00;;;;;;5031131;28;20582;-32
2023/09/16 05:12:41;;;;;;;4.43;3.92;;;19.80;68.40;;;;;;5031730;28;20059;-30
2023/09/16 05:15:09;;;;;;;5.85;4.10;;;19.00;68.00;;;;;;5027227;28;20053;-31
2023/09/16 05:17:36;;;;;;;4.68;4.18;;;19.90;86.50;;;;;;5031721;28;20136;-29
2023/09/16 05:20:04;;;;;;;4.63;4.07;;;;;;;;;;5031940;28;20057;-30
2023/09/16 05:22:31;;;;;;;5.00;4.15;;;;;;;;;;5031442;28;20459;-31
2023/09/16 05:24:58;;;;;;;4.40;4.00;;;18.50;85.90;;;;;;5031914;28;20045;-29
2023/09/16 05:27:26;;;;;;;4.43;3.83;;;19.00;68.00;;;;;;5030754;28;20049;-31
2023/09/16 05:29:55;;;;;;;5.25;3.95;;;;;;;;;;5031552;28;20045;-32
2023/09/16 05:32:23;;;;;;;4.57;3.75;;;;;;;;;;5031251;28;20058;-30
2023/09/16 05:34:50;;;;;;;4.20;3.80;;;;;;;;;;5030402;28;20481;-30
2023/09/16 05:37:16;;;;;;;5.68;4.07;;;18.80;86.00;;;;;;5031136;28;20557;-29
2023/09/16 05:39:43;;;;;;;4.00;3.60;;;;;;;;;;5031486;28;20137;-31
2023/09/16 05:42:10;;;;;;;4.20;3.80;;;18.70;85.80;;;;;;5030939;28;20132;-29
2023/09/16 05:44:38;;;;;;;4.68;3.78;;;19.20;86.30;;;;;;5031035;28;20485;-29
2023/09/16 05:47:05;;;;;;;5.50;3.80;;;19.20;78.10;;;;;;5031621;28;20152;-29
2023/09/16 05:49:32;;;;;;;3.90;3.50;;;19.10;86.50;;;;;;5032056;28;20055;-29
2023/09/16 05:51:59;;;;;;;4.18;3.20;;;19.40;86.70;;;;;;5031112;28;20073;-29
2023/09/16 05:54:26;;;;;;;4.75;3.80;;;19.00;68.00;;;;;;5032026;28;20132;-30
2023/09/16 05:56:53;;;;;;;4.30;3.47;;;18.60;86.00;;;;;;5031973;28;20454;-29
2023/09/16 05:59:21;;;;;;;4.25;3.58;;;;;;;;;;5031415;28;20132;-29
2023/09/16 06:01:49;;;;;;;4.22;3.50;;;20.20;68.60;;;;;;5032180;28;20099;-30
2023/09/16 06:04:16;;;;;;;4.22;3.38;;;;;;;;;;5040368;28;20473;-30
2023/09/16 06:06:43;;;;;;;5.65;3.33;;;19.00;86.40;;;;;;5051864;28;20049;-29
2023/09/16 06:09:10;;;;;;;4.68;3.70;;;;;;;;;;5051869;28;20386;-30
2023/09/16 06:11:37;;;;;;;4.65;3.63;;;18.60;86.10;;;;;;5051643;28;20466;-28
2023/09/16 06:14:05;;;;;;;6.93;3.70;;;19.20;86.30;;;;;;5051610;28;20131;-29
2023/09/16 06:16:32;;;;;;;4.20;3.60;;;;;;;;;;5032678;28;20088;-31
2023/09/16 06:19:00;;;;;;;4.30;3.50;;;18.90;68.00;;;;;;5031910;28;20128;-30
2023/09/16 06:21:27;;;;;;;4.40;3.53;;;17.80;74.50;;;;;;5031778;28;20132;-29
2023/09/16 06:23:54;;;;;;;4.22;3.65;;;;;;;;;;5031612;28;20562;-29
2023/09/16 06:26:21;;;;;;;4.28;3.53;;;19.50;82.40;;;;;;5031687;28;20479;-29
2023/09/16 06:28:48;;;;;;;4.20;3.40;;;19.00;86.20;;;;;;5031610;28;20132;-29
2023/09/16 06:31:14;;;;;;;4.93;3.50;;;18.70;82.10;;;;;;5031653;28;20767;-29
2023/09/16 06:33:41;;;;;;;4.50;4.03;;;18.50;74.40;;;;;;5031499;28;20132;-29
2023/09/16 06:36:09;;;;;;;4.30;3.60;;;19.00;86.20;;;;;;5031203;28;20132;-29
2023/09/16 06:38:36;;;;;;;4.32;3.42;;;19.10;86.60;;;;;;5031541;28;20132;-29
2023/09/16 06:41:02;;;;;;;4.40;3.72;;;19.30;86.70;;;;;;5034767;28;20148;-29
2023/09/16 06:43:29;;;;;;;4.40;3.70;;;;;;;;;;5035504;28;20134;-30
2023/09/16 06:45:56;;;;;;;4.32;3.75;;;18.60;86.30;;;;;;5035510;28;20132;-28
2023/09/16 06:48:23;;;;;;;5.38;3.63;;;19.00;86.30;;;;;;5034569;28;20415;-29
2023/09/16 06:50:51;;;;;;;4.00;3.40;;;18.90;84.30;;;;;;5034547;28;20145;-29
2023/09/16 06:53:19;;;;;;;4.82;3.83;;;19.40;85.70;;;;;;5035147;28;20136;-29
2023/09/16 06:55:47;;;;;;;4.88;3.97;;;18.80;86.60;;;;;;5035296;28;20124;-29
2023/09/16 06:58:14;;;;;;;4.18;3.53;;;19.50;78.70;;;;;;5035376;28;20129;-29
2023/09/16 07:00:41;;;;;;;3.88;3.47;;;;;;;;;;5035079;28;20136;-29
2023/09/16 07:03:08;;;;;;;5.50;3.72;;;;;;;;;;5035161;28;20050;-30
2023/09/16 07:05:35;;;;;;;4.38;3.78;;;18.60;86.20;;;;;;5054136;28;20133;-29
2023/09/16 07:08:01;;;;;;;4.32;3.92;;;18.50;86.50;;;;;;5054782;28;20127;-29
2023/09/16 07:10:29;;;;;;;4.75;4.03;;;19.00;69.50;;;;;;5055256;28;20124;-30
2023/09/16 07:12:56;;;;;;;4.47;3.90;;;;;;;;;;5054891;28;20132;-29
2023/09/16 07:15:24;;;;;;;4.18;3.45;;;18.00;83.30;;;;;;5040943;28;20124;-29
2023/09/16 07:17:50;;;;;;;4.50;3.70;;;17.80;73.20;;;;;;5034975;28;20133;-30
2023/09/16 07:20:17;;;;;;;5.22;4.13;;;19.60;86.70;;;;;;5034856;28;20132;-29
2023/09/16 07:22:44;;;;;;;4.35;3.67;;;17.90;85.90;;;;;;5034557;28;20541;-29
2023/09/16 07:25:11;;;;;;;3.92;3.40;;;18.40;79.00;;;;;;5034759;28;20137;-29
2023/09/16 07:27:39;;;;;;;4.10;3.70;;;18.50;86.50;;;;;;5034719;28;20144;-29
2023/09/16 07:30:06;;;;;;;4.15;3.30;;;18.80;86.60;;;;;;5034223;28;20144;-29
2023/09/16 07:32:33;;;;;;;4.53;3.78;;;17.90;86.20;;;;;;5034498;28;20132;-29
2023/09/16 07:35:00;;;;;;;4.43;3.80;;;;;;;;;;5034483;28;20128;-29
2023/09/16 07:37:27;;;;;;;4.00;3.28;;;;;;;;;;5034230;28;20135;-29
2023/09/16 07:39:54;;;;;;;4.15;3.22;;;18.90;86.50;;;;;;5024502;28;20065;-29
2023/09/16 07:42:21;;;;;;;4.57;3.80;;;;;;;;;;5029862;28;20049;-30
2023/09/16 07:44:49;;;;;;;3.67;3.20;;;18.80;86.80;;;;;;5034347;28;20553;-29
2023/09/16 07:47:16;;;;;;;4.15;3.65;;;18.90;86.90;;;;;;5033990;28;20132;-29
2023/09/16 07:49:43;;;;;;;4.10;3.40;;;18.30;86.20;;;;;;5034528;28;20132;-29
2023/09/16 07:52:09;;;;;;;4.82;3.50;;;19.40;83.00;;;;;;5033390;28;20128;-29
2023/09/16 07:54:36;;;;;;;4.05;3.15;;;;;;;;;;5034209;28;20137;-30
2023/09/16 07:57:04;;;;;;;5.05;3.42;;;;;;;;;;5034228;28;20128;-31
2023/09/16 07:59:30;;;;;;;4.00;3.40;;;18.50;86.30;;;;;;5034203;28;20124;-29
2023/09/16 08:01:58;;;;;;;4.63;3.47;;;18.80;68.70;;;;;;5033729;28;20140;-30
2023/09/16 08:04:25;;;;;;;3.30;3.00;;;18.90;86.50;;;;;;5038105;28;20154;-29
2023/09/16 08:06:53;;;;;;;3.35;3.03;;;19.00;73.70;;;;;;5033904;28;20095;-29
2023/09/16 08:09:20;;;;;;;7.32;3.45;;;;;;;;;;5033334;28;20090;-31
2023/09/16 08:11:46;;;;;;;3.58;2.95;;;19.10;86.90;;;;;;5022545;28;20129;-29
2023/09/16 08:14:13;;;;;;;4.68;3.05;;;19.00;86.70;;;;;;5025231;28;20093;-29
2023/09/16 08:16:40;;;;;;;5.28;3.63;;;19.30;71.80;;;;;;5022686;28;20129;-29
2023/09/16 08:19:08;;;;;;;4.03;3.20;;;18.90;86.50;;;;;;5023876;28;20129;-29
2023/09/16 08:21:35;;;;;;;3.60;3.20;;;18.60;86.60;;;;;;5023346;28;20125;-29
2023/09/16 08:24:01;;;;;;;3.60;3.13;;;19.30;86.80;;;;;;5024805;28;20570;-29
2023/09/16 08:26:29;;;;;;;3.67;3.03;;;;;;;;;;5022080;28;20145;-30
2023/09/16 08:28:55;;;;;;;3.20;2.80;;;20.00;87.20;;;;;;5023281;28;20052;-29
2023/09/16 08:31:23;;;;;;;6.90;3.20;;;;;;;;;;5023949;28;20129;-30
2023/09/16 08:33:50;;;;;;;4.88;3.45;;;19.50;86.80;;;;;;5021801;28;20132;-29
2023/09/16 08:36:18;;;;;;;3.42;2.90;;;19.00;68.50;;;;;;5026461;28;20136;-30
2023/09/16 08:38:45;;;;;;;4.60;3.05;;;;;;;;;;5026658;28;20195;-32
2023/09/16 08:41:14;;;;;;;4.43;3.03;;;18.70;86.30;;;;;;5024698;28;20085;-29
2023/09/16 08:43:41;;;;;;;5.20;3.10;;;;;;;;;;5022250;28;20104;-32
2023/09/16 08:46:10;;;;;;;4.28;3.10;;;18.90;86.80;;;;;;5023887;28;20076;-28
2023/09/16 08:48:37;;;;;;;4.82;3.17;;;;;;;;;;5020049;28;20447;-32
2023/09/16 08:51:05;;;;;;;3.47;2.67;;;19.10;68.50;;;;;;5023814;28;20144;-29
2023/09/16 08:53:34;;;;;;;3.38;3.05;;;19.00;68.50;;;;;;5023212;28;20601;-30
2023/09/16 08:56:01;;;;;;;3.92;2.83;;;;;;;;;;5021195;28;20124;-31
2023/09/16 08:58:28;;;;;;;3.13;2.80;;;19.10;86.80;;;;;;5023461;28;20125;-29
2023/09/16 09:00:55;;;;;;;4.25;2.88;;;19.70;86.80;;;;;;5022500;28;20122;-29
2023/09/16 09:03:22;;;;;;;3.00;2.70;;;19.60;76.90;;;;;;5027246;28;20128;-29
2023/09/16 09:05:48;;;;;;;4.22;2.88;;;19.50;87.00;;;;;;5023780;28;20391;-32
2023/09/16 09:08:15;;;;;;;3.08;2.50;;;19.40;86.90;;;;;;5030634;28;20125;-32
2023/09/16 09:10:43;;;;;;;4.70;2.50;;;19.10;68.30;;;;;;5032612;28;20148;-31
2023/09/16 09:13:12;;;;;;;3.13;2.55;;;19.30;71.60;;;;;;5032577;28;20136;-31
2023/09/16 09:15:39;;;;;;;3.65;2.70;;;18.00;75.00;;;;;;5032575;28;20124;-32
2023/09/16 09:18:07;;;;;;;2.90;2.45;;;18.70;83.80;;;;;;5032411;28;20057;-32
2023/09/16 09:20:33;;;;;;;2.95;2.55;;;19.30;86.70;;;;;;5032923;28;20124;-32
2023/09/16 09:23:01;;;;;;;3.00;2.42;;;19.00;79.00;;;;;;5032119;28;20136;-29
2023/09/16 09:25:28;;;;;;;4.38;2.28;;;19.40;68.30;;;;;;5032406;28;20560;-30
2023/09/16 09:27:57;;;;;;;2.95;2.20;;;19.50;86.50;;;;;;5032397;28;20137;-29
2023/09/16 09:30:26;;;;;;;2.50;2.10;;;;;;;;;;5021202;28;20038;-29
2023/09/16 09:32:55;;;;;;;5.75;2.45;;;19.70;86.00;;;;;;5021445;28;20052;-29
2023/09/16 09:35:22;;;;;;;2.22;1.83;;;19.20;85.70;;;;;;5032311;28;20050;-29
2023/09/16 09:37:49;;;;;;;2.85;2.20;;;19.90;85.70;;;;;;5031669;28;20140;-29
2023/09/16 09:40:16;;;;;;;2.95;2.20;;;20.50;70.30;;;;;;5032111;28;20056;-29
2023/09/16 09:42:44;;;;;;;3.90;2.30;;;20.20;85.00;;;;;;5029686;28;20041;-32
2023/09/16 09:45:12;;;;;;;4.93;2.20;;;20.50;67.30;;;;;;5029069;28;20228;-30
2023/09/16 09:47:39;;;;;;;3.67;2.22;;;21.00;84.10;;;;;;5028781;28;20562;-32
2023/09/16 09:50:07;;;;;;;3.92;2.10;;;20.40;84.70;;;;;;5021386;28;20554;-32
2023/09/16 09:52:34;;;;;;;2.58;2.10;;;20.40;67.50;;;;;;5012132;28;20049;-31
2023/09/16 09:55:01;;;;;;;1.92;1.60;;;21.60;75.40;;;;;;5012352;28;20056;-31
2023/09/16 09:57:28;;;;;;;2.05;1.85;;;21.20;84.80;;;;;;5012293;28;20485;-31
2023/09/16 09:59:55;;;;;;;2.10;1.77;;;21.10;66.40;;;;;;5011093;28;20136;-31
2023/09/16 10:02:25;;;;;;;2.13;1.70;;;21.10;83.40;;;;;;5018101;28;20144;-29
2023/09/16 10:04:57;;;;;;;2.22;1.88;;;21.20;66.20;;;;;;5043897;28;20053;-30
2023/09/16 10:07:25;;;;;;;2.30;1.90;;;21.80;73.80;;;;;;5031908;28;20057;-30
2023/09/16 10:09:51;;;;;;;2.65;2.03;;;20.90;74.00;;;;;;5031857;28;20080;-29
2023/09/16 10:12:18;;;;;;;2.42;1.90;;;21.30;83.40;;;;;;5031765;28;20585;-29
2023/09/16 10:14:45;;;;;;;2.30;1.90;;;;;;;;;;5031138;28;20124;-31
2023/09/16 10:17:13;;;;;;;2.90;1.77;;;21.10;82.80;;;;;;5031574;28;20510;-29
2023/09/16 10:19:41;;;;;;;2.17;1.80;;;21.30;65.80;;;;;;5031801;28;20426;-30
2023/09/16 10:22:08;;;;;;;3.15;2.05;;;;;;;;;;5031221;28;20128;-30
2023/09/16 10:24:35;;;;;;;3.60;1.85;;;;;;;;;;5031311;28;20129;-29
2023/09/16 10:27:05;;;;;;;3.05;1.95;;;21.40;65.80;;;;;;5031558;28;20132;-31
2023/09/16 10:29:32;;;;;;;2.00;1.70;;;;;;;;;;5029580;28;20141;-30
2023/09/16 10:31:59;;;;;;;2.75;1.90;;;21.70;80.20;;;;;;5019798;28;20128;-31
2023/09/16 10:34:26;;;;;;;2.30;1.70;;;;;;;;;;5020090;28;20061;-32
2023/09/16 10:36:54;;;;;;;2.28;1.95;;;21.30;65.70;;;;;;5018539;28;20129;-31
2023/09/16 10:39:21;;;;;;;2.55;1.80;;;20.90;82.40;;;;;;5012119;28;20054;-31
2023/09/16 10:41:47;;;;;;;2.33;1.88;;;21.20;83.10;;;;;;5011660;28;20564;-31
2023/09/16 10:44:14;;;;;;;2.25;2.05;;;;;;;;;;5014138;28;20140;-30
2023/09/16 10:46:41;;;;;;;2.17;1.90;;;21.80;83.70;;;;;;5023212;28;20136;-32
2023/09/16 10:49:08;;;;;;;2.47;2.00;;;21.00;83.40;;;;;;5031488;28;20136;-32
2023/09/16 10:51:37;;;;;;;2.33;1.85;;;21.70;67.50;;;;;;5031063;28;20100;-32
2023/09/16 10:54:07;;;;;;;2.35;1.85;;;21.30;82.70;;;;;;5030980;28;20578;-32
2023/09/16 10:56:37;;;;;;;2.22;1.98;;;21.00;82.40;;;;;;5031498;28;20128;-32
2023/09/16 10:59:07;;;;;;;2.70;2.17;;;21.40;65.60;;;;;;5031085;28;20109;-32
2023/09/16 11:01:36;;;;;;;3.13;2.00;;;21.60;83.10;;;;;;5030827;28;20045;-29
2023/09/16 11:04:07;;;;;;;2.25;1.73;;;21.30;65.50;;;;;;5023143;28;20049;-30
2023/09/16 11:06:33;;;;;;;3.03;1.92;;;21.60;83.40;;;;;;5020987;28;20136;-30
2023/09/16 11:09:00;;;;;;;2.17;1.73;;;20.40;82.00;;;;;;5026849;28;20137;-30
2023/09/16 11:11:28;;;;;;;2.17;1.73;;;21.40;65.40;;;;;;5030716;28;20124;-31
2023/09/16 11:13:55;;;;;;;2.58;1.88;;;;;;;;;;5027210;28;20568;-31
2023/09/16 11:16:22;;;;;;;2.47;1.90;;;22.10;83.50;;;;;;5020011;28;20461;-30
2023/09/16 11:18:49;;;;;;;2.50;2.00;;;21.00;82.20;;;;;;5011533;28;20132;-29
2023/09/16 11:21:17;;;;;;;2.42;1.90;;;21.10;82.50;;;;;;5019231;28;20073;-29
2023/09/16 11:23:44;;;;;;;2.00;1.77;;;21.40;65.30;;;;;;5020369;28;20054;-30
2023/09/16 11:26:11;;;;;;;2.20;1.83;;;22.50;80.10;;;;;;5020866;28;20634;-29
2023/09/16 11:28:39;;;;;;;3.58;1.83;;;20.90;68.30;;;;;;5025952;28;20061;-29
2023/09/16 11:31:06;;;;;;;2.65;2.10;;;21.40;67.80;;;;;;5021537;28;20045;-30
2023/09/16 11:33:34;;;;;;;2.28;1.98;;;21.70;83.50;;;;;;5034377;28;20049;-29
2023/09/16 11:36:06;;;;;;;2.30;1.70;;;21.90;83.50;;;;;;5034263;28;20128;-29
2023/09/16 11:38:33;;;;;;;3.13;2.00;;;;;;;;;;5034546;28;20095;-29
2023/09/16 11:41:10;;;;;;;1.90;1.52;;;21.40;65.40;;;;;;5034267;28;20383;-31
2023/09/16 11:43:38;;;;;;;2.03;1.83;;;21.60;75.30;;;;;;5034573;28;20395;-29
2023/09/16 11:46:06;;;;;;;2.67;1.92;;;20.90;82.20;;;;;;5034256;28;20586;-29
2023/09/16 11:48:50;;;;;;;2.75;1.80;;;21.30;65.50;;;;;;5033523;28;20060;-30
2023/09/16 11:51:17;;;;;;;2.10;1.87;;;21.00;77.90;;;;;;5034050;28;20100;-30
2023/09/16 11:53:45;;;;;;;2.17;1.77;;;21.20;78.70;;;;;;5033612;28;20049;-32
2023/09/16 11:56:11;;;;;;;2.33;1.70;;;21.70;83.50;;;;;;5033907;28;20149;-32
2023/09/16 11:58:40;;;;;;;2.17;1.80;;;21.80;82.90;;;;;;5034302;28;20053;-32
2023/09/16 12:01:07;;;;;;;2.85;2.15;;;21.00;82.50;;;;;;5034146;28;20562;-32
2023/09/16 12:03:34;;;;;;;2.60;1.88;;;20.00;82.00;;;;;;5036350;28;20125;-32
2023/09/16 12:06:01;;;;;;;2.53;1.90;;;;;;;;;;5035169;28;20132;-31
2023/09/16 12:08:28;;;;;;;3.90;1.90;;;20.70;82.40;;;;;;5034274;28;20129;-32
2023/09/16 12:10:55;;;;;;;2.85;1.83;;;;;;;;;;5034125;28;20126;-32
2023/09/16 12:13:28;;;;;;;2.70;2.08;;;21.10;82.50;;;;;;5033977;28;20128;-32
2023/09/16 12:15:56;;;;;;;2.75;2.00;;;21.20;65.70;;;;;;5033971;28;20128;-31
2023/09/16 12:18:23;;;;;;;3.30;1.85;;;;;;;;;;5033747;28;20132;-32
2023/09/16 12:20:50;;;;;;;3.25;2.30;;;20.10;82.10;;;;;;5033503;28;20132;-32
2023/09/16 12:23:17;;;;;;;5.22;2.00;;;20.10;82.50;;;;;;5033775;28;20124;-32
2023/09/16 12:25:44;;;;;;;2.88;1.92;;;21.10;72.80;;;;;;5033547;28;20090;-32
2023/09/16 12:28:11;;;;;;;2.28;1.95;;;20.90;82.90;;;;;;5033655;28;20045;-32
2023/09/16 12:30:42;;;;;;;3.50;2.10;;;21.60;73.10;;;;;;5033240;28;20140;-32
2023/09/16 12:33:10;;;;;;;4.38;1.90;;;21.30;82.80;;;;;;5033514;28;20053;-32
2023/09/16 12:35:38;;;;;;;2.83;2.00;;;21.50;74.20;;;;;;5033427;28;20132;-32
2023/09/16 12:38:05;;;;;;;2.65;2.00;;;21.70;80.20;;;;;;5032281;28;20049;-32
2023/09/16 12:40:32;;;;;;;2.45;1.85;;;21.30;65.80;;;;;;5033488;28;20133;-32
2023/09/16 12:42:59;;;;;;;2.83;2.00;;;21.20;83.20;;;;;;5032957;28;20136;-32
2023/09/16 12:45:26;;;;;;;2.38;1.98;;;;;;;;;;5033487;28;20149;-30
2023/09/16 12:47:53;;;;;;;4.75;2.10;;;21.50;77.50;;;;;;5033189;28;20049;-32
2023/09/16 12:50:21;;;;;;;2.83;2.03;;;21.30;65.80;;;;;;5032949;28;20411;-31
2023/09/16 12:52:48;;;;;;;3.28;2.10;;;22.10;83.70;;;;;;5032657;28;20137;-32
2023/09/16 12:55:16;;;;;;;4.18;2.40;;;20.90;83.40;;;;;;5033232;28;20056;-32
2023/09/16 12:57:43;;;;;;;2.88;2.05;;;21.90;77.80;;;;;;5032967;28;20056;-32
2023/09/16 13:00:15;;;;;;;2.70;1.92;;;21.40;82.80;;;;;;5032912;28;20454;-29
2023/09/16 13:02:41;;;;;;;4.13;2.30;;;20.90;82.70;;;;;;5033013;28;20103;-29
2023/09/16 13:05:13;;;;;;;3.13;2.30;;;21.30;65.80;;;;;;5048135;28;20120;-31
2023/09/16 13:07:41;;;;;;;3.05;2.00;;;22.10;83.30;;;;;;5052740;28;20091;-31
2023/09/16 13:10:09;;;;;;;2.92;2.05;;;21.20;65.80;;;;;;5036771;28;20466;-32